Culpeper, Arkansas
Current Conditions -  °F | °C
As of 11:55 PM on Saturday 22 Nov 2014 (Local Time) from KCCA Reporting Station
Haze Haze  
Wind Chill: 48°   Ceiling: 3200
Heat Index: 48°   Visibility: 1.2mi
Dew Point: 48°   Wind: 0mph
Humidity: 100%   Direction: NA
Pressure: 29.87"   Gusts: NA
Location:  35.6269°N, 92.5508°W
Report Text: KCCA 230555Z AUTO 00000KT 1 1/4SM BR OVC032 09/09 A2987 RMK AO2
Loading
Personal Weather Stations






























Interactive Weather Map New forecast layout! Learn more

10-Day Weather Forecast

Advertisements
Track Severe Weather on mobile